Time;durP1;ratioP1;P1;durP2;ratioP2;P2;SDS_P1;SDS_P2;PMS_P1;PMS_P2;Temp;Humidity;BMP_temperature;BMP_pressure;BME280_temperature;BME280_humidity;BME280_pressure;Samples;Min_cycle;Max_cycle;Signal;HPM_P1;HPM_P2
2021/05/29 00:00:49;;;;;;;6.00;5.37;;;16.20;58.00;;;;;;6190318;23;20382;-90
2021/05/29 00:03:15;;;;;;;6.97;5.73;;;16.20;58.10;;;;;;6192017;23;20320;-90
2021/05/29 00:05:41;;;;;;;6.13;5.40;;;16.20;58.70;;;;;;6191723;23;20080;-91
2021/05/29 00:08:08;;;;;;;11.20;6.03;;;16.10;58.10;;;;;;6191060;23;20147;-92
2021/05/29 00:10:35;;;;;;;6.53;5.87;;;16.10;58.30;;;;;;6191818;23;20011;-90
2021/05/29 00:13:01;;;;;;;7.07;5.17;;;16.10;58.40;;;;;;6217468;23;20007;-91
2021/05/29 00:15:30;;;;;;;7.83;5.73;;;16.00;58.40;;;;;;6192173;23;20012;-91
2021/05/29 00:17:56;;;;;;;7.63;5.80;;;16.00;58.50;;;;;;6191288;23;20316;-90
2021/05/29 00:20:22;;;;;;;6.00;5.40;;;16.00;58.70;;;;;;6191076;23;20023;-91
2021/05/29 00:22:48;;;;;;;8.23;6.43;;;16.00;58.80;;;;;;6190504;23;20027;-91
2021/05/29 00:25:15;;;;;;;7.97;5.80;;;15.90;58.80;;;;;;6190450;23;20005;-91
2021/05/29 00:27:41;;;;;;;6.03;5.43;;;15.90;58.80;;;;;;6216829;23;20472;-91
2021/05/29 00:30:10;;;;;;;7.97;6.00;;;16.00;58.60;;;;;;6191713;23;20040;-90
2021/05/29 00:32:36;;;;;;;6.30;5.33;;;15.90;58.80;;;;;;6217954;23;20003;-90
2021/05/29 00:35:03;;;;;;;8.80;5.97;;;15.80;58.80;;;;;;6191044;23;20056;-91
2021/05/29 00:37:28;;;;;;;9.37;5.63;;;15.80;58.60;;;;;;6191771;23;20343;-91
2021/05/29 00:39:54;;;;;;;6.17;5.40;;;15.90;58.70;;;;;;6189809;23;20011;-91
2021/05/29 00:42:20;;;;;;;6.87;5.47;;;15.90;58.90;;;;;;6190857;23;20037;-90
2021/05/29 00:44:54;;;;;;;8.53;5.67;;;15.80;58.90;;;;;;6191285;23;20024;-90
2021/05/29 00:47:26;;;;;;;8.90;5.53;;;15.80;59.10;;;;;;6217612;23;20009;-89
2021/05/29 00:49:53;;;;;;;8.10;5.60;;;15.80;59.10;;;;;;6190509;23;20032;-91
2021/05/29 00:52:21;;;;;;;10.43;6.13;;;15.70;59.10;;;;;;6190258;23;20091;-90
2021/05/29 00:54:47;;;;;;;8.30;5.17;;;15.70;58.90;;;;;;6190834;23;20005;-90
2021/05/29 00:57:14;;;;;;;9.03;5.70;;;15.70;58.90;;;;;;6191699;23;20008;-91
2021/05/29 00:59:40;;;;;;;5.40;4.90;;;15.80;58.80;;;;;;6191355;23;20036;-90
2021/05/29 01:02:07;;;;;;;8.00;5.63;;;15.80;58.70;;;;;;6191056;23;20004;-91
2021/05/29 01:04:34;;;;;;;6.73;5.43;;;15.80;58.70;;;;;;6191628;23;20005;-91
2021/05/29 01:07:00;;;;;;;5.37;4.83;;;15.80;58.70;;;;;;6191872;23;20005;-90
2021/05/29 01:09:26;;;;;;;6.07;5.13;;;15.70;58.60;;;;;;6191701;23;20024;-90
2021/05/29 01:11:52;;;;;;;8.20;5.83;;;15.70;58.80;;;;;;6218327;23;20004;-91
2021/05/29 01:14:19;;;;;;;7.50;5.83;;;15.70;58.80;;;;;;6192165;23;20055;-91
2021/05/29 01:17:01;;;;;;;7.83;4.93;;;15.80;58.90;;;;;;6191573;23;20009;-87
2021/05/29 01:19:28;;;;;;;6.93;6.00;;;15.80;58.80;;;;;;6189886;23;20043;-89
2021/05/29 01:21:54;;;;;;;6.37;5.47;;;15.70;59.20;;;;;;6190378;23;20059;-90
2021/05/29 01:24:23;;;;;;;9.83;6.33;;;15.80;58.60;;;;;;6191165;23;20004;-90
2021/05/29 01:26:50;;;;;;;5.90;5.30;;;15.70;58.70;;;;;;6190537;23;20015;-90
2021/05/29 01:29:16;;;;;;;7.77;6.03;;;15.60;58.90;;;;;;6190129;23;20083;-90
2021/05/29 01:31:47;;;;;;;6.83;6.07;;;15.60;59.00;;;;;;6190823;23;20450;-90
2021/05/29 01:34:14;;;;;;;6.77;5.83;;;15.60;59.00;;;;;;6190617;23;20007;-91
2021/05/29 01:36:40;;;;;;;7.43;6.50;;;15.50;59.20;;;;;;6217011;23;20426;-89
2021/05/29 01:39:08;;;;;;;7.03;6.20;;;15.50;59.40;;;;;;6189684;23;20009;-90
2021/05/29 01:41:35;;;;;;;8.27;6.03;;;15.50;59.50;;;;;;6190276;23;20011;-90
2021/05/29 01:44:01;;;;;;;7.60;5.70;;;15.40;59.60;;;;;;6190432;23;20008;-90
2021/05/29 01:46:27;;;;;;;10.67;6.03;;;15.40;59.70;;;;;;6190711;23;20338;-90
2021/05/29 01:48:53;;;;;;;8.03;6.30;;;15.40;59.70;;;;;;6190009;23;20316;-90
2021/05/29 01:51:22;;;;;;;7.83;6.63;;;15.40;60.10;;;;;;6190874;23;20032;-90
2021/05/29 01:53:48;;;;;;;8.70;5.80;;;15.40;59.80;;;;;;6189032;23;20036;-90
2021/05/29 01:56:14;;;;;;;8.20;6.03;;;15.40;60.00;;;;;;6190240;23;20016;-90
2021/05/29 01:58:41;;;;;;;9.13;7.33;;;15.40;60.10;;;;;;6190369;23;20611;-90
2021/05/29 02:01:09;;;;;;;7.87;6.70;;;15.30;60.00;;;;;;6189920;23;20019;-90
2021/05/29 02:03:36;;;;;;;8.70;6.33;;;15.30;60.10;;;;;;6190432;23;20431;-91
2021/05/29 02:06:02;;;;;;;9.77;6.77;;;15.30;60.30;;;;;;6216061;23;20001;-90
2021/05/29 02:08:28;;;;;;;10.30;6.77;;;15.30;60.40;;;;;;6190268;23;20004;-90
2021/05/29 02:10:54;;;;;;;9.17;6.23;;;15.30;60.50;;;;;;6189585;23;20392;-90
2021/05/29 02:13:40;;;;;;;7.53;6.03;;;15.30;60.70;;;;;;6190250;23;20007;-90
2021/05/29 02:16:10;;;;;;;9.33;6.43;;;15.30;61.00;;;;;;6190072;23;20012;-91
2021/05/29 02:18:38;;;;;;;7.77;6.30;;;15.30;61.10;;;;;;6190039;23;20091;-91
2021/05/29 02:21:07;;;;;;;7.97;6.73;;;15.20;61.30;;;;;;6190381;23;20091;-90
2021/05/29 02:23:45;;;;;;;7.77;6.30;;;15.20;61.60;;;;;;6189818;23;20088;-90
2021/05/29 02:26:29;;;;;;;9.57;6.60;;;15.20;61.80;;;;;;6190077;23;20431;-90
2021/05/29 02:28:55;;;;;;;7.57;6.17;;;15.20;62.00;;;;;;6190409;23;20012;-91
2021/05/29 02:31:22;;;;;;;7.73;6.40;;;15.20;61.90;;;;;;6189866;23;20001;-90
2021/05/29 02:33:48;;;;;;;9.17;5.77;;;15.10;62.00;;;;;;6189573;23;20048;-89
2021/05/29 02:36:13;;;;;;;7.53;6.13;;;15.10;62.30;;;;;;6189466;23;20103;-90
2021/05/29 02:38:40;;;;;;;6.30;5.70;;;15.10;62.60;;;;;;6190384;23;20055;-91
2021/05/29 02:41:12;;;;;;;7.90;6.23;;;15.10;62.90;;;;;;6189611;23;20032;-91
2021/05/29 02:43:38;;;;;;;9.38;6.20;;;15.10;63.00;;;;;;6190172;23;20032;-90
2021/05/29 02:46:04;;;;;;;8.43;5.60;;;15.00;63.00;;;;;;6187259;23;20013;-82
2021/05/29 02:48:30;;;;;;;6.03;5.10;;;15.00;63.40;;;;;;6187649;23;20005;-82
2021/05/29 02:50:56;;;;;;;6.60;5.60;;;14.90;63.60;;;;;;6187645;23;20396;-84
2021/05/29 02:53:22;;;;;;;5.20;4.63;;;14.80;63.80;;;;;;6187143;23;20667;-82
2021/05/29 02:55:47;;;;;;;7.23;4.53;;;14.80;64.70;;;;;;6187214;23;20099;-82
2021/05/29 02:58:13;;;;;;;6.63;5.27;;;14.70;64.10;;;;;;6185250;23;19997;-84
2021/05/29 03:00:46;;;;;;;5.23;4.30;;;14.70;64.10;;;;;;6184883;23;20031;-85
2021/05/29 03:03:13;;;;;;;5.30;4.38;;;14.70;64.30;;;;;;6189118;23;20008;-82
2021/05/29 03:05:44;;;;;;;6.57;5.10;;;14.70;64.40;;;;;;6191909;23;20507;-82
2021/05/29 03:08:11;;;;;;;6.63;5.27;;;14.60;64.60;;;;;;6191439;23;20029;-83
2021/05/29 03:10:37;;;;;;;7.87;5.60;;;14.60;64.60;;;;;;6216804;23;20058;-83
2021/05/29 03:13:07;;;;;;;11.90;6.47;;;14.70;64.60;;;;;;6215972;23;20073;-83
2021/05/29 03:15:33;;;;;;;6.33;5.60;;;14.70;64.50;;;;;;6189397;23;20001;-82
2021/05/29 03:17:59;;;;;;;7.73;5.90;;;14.70;64.50;;;;;;6188901;23;20015;-83
2021/05/29 03:20:28;;;;;;;8.87;5.33;;;14.70;64.50;;;;;;6189045;23;20005;-82
2021/05/29 03:22:54;;;;;;;6.10;5.50;;;14.60;64.80;;;;;;6213107;23;20000;-83
2021/05/29 03:25:20;;;;;;;6.63;5.57;;;14.60;64.90;;;;;;6186773;23;20016;-82
2021/05/29 03:27:49;;;;;;;8.77;5.57;;;14.60;65.00;;;;;;6189100;23;20011;-83
2021/05/29 03:30:17;;;;;;;8.50;6.33;;;14.60;65.20;;;;;;6188556;23;20431;-82
2021/05/29 03:32:43;;;;;;;7.60;6.77;;;14.60;65.40;;;;;;6188358;23;20001;-82
2021/05/29 03:35:10;;;;;;;8.40;6.87;;;14.60;65.60;;;;;;6188168;23;20004;-83
2021/05/29 03:37:36;;;;;;;9.70;7.03;;;14.60;65.80;;;;;;6188659;23;20009;-82
2021/05/29 03:40:04;;;;;;;7.37;6.67;;;14.60;65.60;;;;;;6189341;23;20031;-84
2021/05/29 03:42:30;;;;;;;8.67;7.00;;;14.70;65.50;;;;;;6189344;23;20324;-82
2021/05/29 03:44:55;;;;;;;9.20;7.30;;;14.70;65.30;;;;;;6183917;23;20047;-83
2021/05/29 03:47:21;;;;;;;11.00;7.40;;;14.70;65.30;;;;;;6183683;23;20017;-82
2021/05/29 03:49:47;;;;;;;9.77;6.90;;;14.70;65.40;;;;;;6185646;23;20001;-83
2021/05/29 03:52:12;;;;;;;9.37;7.13;;;14.70;65.40;;;;;;6183456;23;20040;-83
2021/05/29 03:54:38;;;;;;;10.87;7.03;;;14.70;65.30;;;;;;6183974;23;20091;-82
2021/05/29 03:57:04;;;;;;;8.23;6.93;;;14.80;65.20;;;;;;6184094;23;20388;-82
2021/05/29 03:59:30;;;;;;;8.53;7.53;;;14.80;65.00;;;;;;6184031;23;20002;-83
2021/05/29 04:01:56;;;;;;;11.07;7.77;;;14.80;65.00;;;;;;6184218;23;20016;-83
2021/05/29 04:04:21;;;;;;;9.00;7.37;;;14.80;64.90;;;;;;6184115;23;20482;-83
2021/05/29 04:06:47;;;;;;;12.47;7.67;;;14.80;64.70;;;;;;6183061;23;20009;-82
2021/05/29 04:09:13;;;;;;;8.30;7.00;;;14.80;64.50;;;;;;6183583;23;20005;-82
2021/05/29 04:11:39;;;;;;;8.63;7.77;;;14.80;64.30;;;;;;6185334;23;19993;-83
2021/05/29 04:14:09;;;;;;;9.90;8.90;;;14.80;64.20;;;;;;6185414;23;20475;-82
2021/05/29 04:16:35;;;;;;;9.70;8.27;;;14.80;64.20;;;;;;6185605;23;20033;-83
2021/05/29 04:19:01;;;;;;;9.43;6.80;;;14.90;64.00;;;;;;6183447;23;20012;-80
2021/05/29 04:21:27;;;;;;;11.60;7.57;;;14.80;63.80;;;;;;6184181;23;20005;-82
2021/05/29 04:23:53;;;;;;;9.87;8.70;;;14.80;63.70;;;;;;6185652;23;20001;-82
2021/05/29 04:26:19;;;;;;;9.97;7.77;;;14.90;63.70;;;;;;6183724;23;20016;-82
2021/05/29 04:28:45;;;;;;;11.17;8.10;;;14.90;63.50;;;;;;6185179;23;20489;-83
2021/05/29 04:31:11;;;;;;;9.10;7.60;;;14.90;63.50;;;;;;6183991;23;20005;-82
2021/05/29 04:33:36;;;;;;;9.27;8.30;;;14.90;63.30;;;;;;6183683;23;20340;-83
2021/05/29 04:36:02;;;;;;;9.30;7.23;;;14.90;63.30;;;;;;6183831;23;20005;-82
2021/05/29 04:38:28;;;;;;;9.07;7.60;;;14.90;63.30;;;;;;6183542;23;20008;-83
2021/05/29 04:40:54;;;;;;;9.43;7.73;;;14.90;63.30;;;;;;6185613;23;20012;-82
2021/05/29 04:43:20;;;;;;;9.13;8.13;;;14.90;63.30;;;;;;6183580;23;20052;-83
2021/05/29 04:45:48;;;;;;;8.73;7.83;;;14.90;63.20;;;;;;6183085;23;20097;-83
2021/05/29 04:48:14;;;;;;;12.20;8.53;;;14.90;63.10;;;;;;6183789;23;20012;-82
2021/05/29 04:53:25;;;;;;;13.93;9.43;;;14.90;63.10;;;;;;6185091;23;20047;-83
2021/05/29 04:55:56;;;;;;;12.20;8.93;;;14.90;63.10;;;;;;6183752;23;20382;-83
2021/05/29 04:58:23;;;;;;;9.47;8.40;;;14.90;63.10;;;;;;6184552;23;20001;-82
2021/05/29 05:00:49;;;;;;;9.93;8.07;;;14.90;63.20;;;;;;6182755;23;20343;-83
2021/05/29 05:03:15;;;;;;;11.60;8.93;;;14.90;63.20;;;;;;6183747;23;20016;-83
2021/05/29 05:05:40;;;;;;;10.47;8.60;;;14.90;63.10;;;;;;6182869;23;20427;-82
2021/05/29 05:08:07;;;;;;;13.07;8.30;;;14.90;63.20;;;;;;6183409;23;19997;-83
2021/05/29 05:10:33;;;;;;;10.80;9.07;;;15.00;63.10;;;;;;6183627;23;20104;-83
2021/05/29 05:12:59;;;;;;;11.37;7.87;;;15.00;62.90;;;;;;6185185;23;20016;-83
2021/05/29 05:15:25;;;;;;;10.93;8.43;;;15.00;62.80;;;;;;6183961;23;20012;-83
2021/05/29 05:17:51;;;;;;;11.63;8.43;;;15.00;62.60;;;;;;6184989;23;20001;-82
2021/05/29 05:20:17;;;;;;;10.83;8.80;;;15.10;62.50;;;;;;6185096;23;20032;-82
2021/05/29 05:22:44;;;;;;;9.63;8.60;;;15.10;62.40;;;;;;6182562;23;20005;-83
2021/05/29 05:25:11;;;;;;;12.13;9.23;;;15.10;62.30;;;;;;6182899;23;20087;-83
2021/05/29 05:27:36;;;;;;;12.20;8.83;;;15.10;62.20;;;;;;6178493;23;20416;-83
2021/05/29 05:30:06;;;;;;;10.53;9.03;;;15.10;62.20;;;;;;6184049;23;20065;-83
2021/05/29 05:32:31;;;;;;;15.00;9.60;;;15.20;62.10;;;;;;6182862;23;20001;-83
2021/05/29 05:34:57;;;;;;;10.70;8.63;;;15.20;62.00;;;;;;6182683;23;20012;-83
2021/05/29 05:37:23;;;;;;;9.23;8.27;;;15.20;62.00;;;;;;6182943;23;20064;-83
2021/05/29 05:39:48;;;;;;;11.43;9.17;;;15.20;61.90;;;;;;6184004;23;20001;-83
2021/05/29 05:42:14;;;;;;;10.73;8.67;;;15.20;61.80;;;;;;6182216;23;20048;-82
2021/05/29 05:44:40;;;;;;;12.50;8.83;;;15.10;61.90;;;;;;6182650;23;20023;-83
2021/05/29 05:47:05;;;;;;;8.93;7.10;;;15.00;62.30;;;;;;6182833;23;20087;-83
2021/05/29 05:49:31;;;;;;;11.10;9.37;;;15.10;62.30;;;;;;6182959;23;20805;-83
2021/05/29 05:51:57;;;;;;;10.63;8.83;;;15.10;62.20;;;;;;6182558;23;20097;-85
2021/05/29 05:54:23;;;;;;;11.87;7.83;;;15.10;62.20;;;;;;6182830;23;20012;-83
2021/05/29 05:56:48;;;;;;;9.63;8.20;;;15.20;62.00;;;;;;6183456;23;20403;-83
2021/05/29 05:59:14;;;;;;;10.97;8.30;;;15.20;61.80;;;;;;6182381;23;20347;-84
2021/05/29 06:01:40;;;;;;;10.03;7.37;;;15.20;61.80;;;;;;6182170;23;20005;-82
2021/05/29 06:04:06;;;;;;;9.93;7.00;;;15.20;61.70;;;;;;6182176;23;20001;-82
2021/05/29 06:06:31;;;;;;;11.30;7.93;;;15.20;61.60;;;;;;6182582;23;20027;-83
2021/05/29 06:08:57;;;;;;;10.63;7.33;;;15.20;61.40;;;;;;6182947;23;20013;-83
2021/05/29 06:11:24;;;;;;;8.43;7.40;;;15.20;61.40;;;;;;6182670;23;20008;-81
2021/05/29 06:21:37;;;;;;;8.83;6.77;;;15.20;61.40;;;;;;6194903;23;20462;-82
2021/05/29 06:24:03;;;;;;;8.43;6.93;;;15.20;61.30;;;;;;6182470;23;20009;-83
2021/05/29 06:26:29;;;;;;;8.67;7.03;;;15.20;61.20;;;;;;6183694;23;20009;-84
2021/05/29 06:28:54;;;;;;;9.93;7.53;;;15.30;61.00;;;;;;6181993;23;20830;-83
2021/05/29 06:31:20;;;;;;;9.20;6.80;;;15.20;61.10;;;;;;6182922;23;20084;-83
2021/05/29 06:33:46;;;;;;;7.10;6.40;;;15.20;61.20;;;;;;6181008;23;20084;-83
2021/05/29 06:36:12;;;;;;;6.67;5.77;;;15.20;61.10;;;;;;6180269;23;20036;-84
2021/05/29 06:38:38;;;;;;;13.10;6.37;;;15.20;61.10;;;;;;6181924;23;20340;-84
2021/05/29 06:41:04;;;;;;;6.03;5.43;;;15.10;61.00;;;;;;6183414;23;20012;-83
2021/05/29 06:43:30;;;;;;;8.70;5.40;;;15.10;61.00;;;;;;6183190;23;20455;-83
2021/05/29 06:45:55;;;;;;;8.50;5.30;;;15.10;61.20;;;;;;6182779;23;20024;-83
2021/05/29 06:48:23;;;;;;;6.57;5.30;;;15.20;61.00;;;;;;6184905;23;20024;-83
2021/05/29 06:50:58;;;;;;;7.37;5.37;;;15.30;60.70;;;;;;6182997;23;20008;-83
2021/05/29 06:53:35;;;;;;;7.77;5.23;;;15.20;60.30;;;;;;6182316;23;20001;-83
2021/05/29 06:58:51;;;;;;;7.07;5.33;;;15.10;60.60;;;;;;6185141;23;20008;-83
2021/05/29 07:01:23;;;;;;;5.95;4.80;;;15.20;60.50;;;;;;6184113;23;20004;-83
2021/05/29 07:03:50;;;;;;;6.03;4.60;;;15.20;60.30;;;;;;6182271;23;20005;-83
2021/05/29 07:06:16;;;;;;;6.03;4.47;;;15.20;60.20;;;;;;6183755;23;20087;-82
2021/05/29 07:08:42;;;;;;;7.83;4.83;;;15.20;60.10;;;;;;6183484;23;20009;-83
2021/05/29 07:11:08;;;;;;;9.33;4.77;;;15.20;60.10;;;;;;6183724;23;20001;-83
2021/05/29 07:13:34;;;;;;;14.80;4.10;;;15.20;59.90;;;;;;6184547;23;20008;-83
2021/05/29 07:16:01;;;;;;;8.80;4.70;;;15.20;59.90;;;;;;6184291;23;20005;-83
2021/05/29 07:18:34;;;;;;;7.40;4.57;;;15.30;59.70;;;;;;6183790;23;20001;-85
2021/05/29 07:21:02;;;;;;;5.23;4.73;;;15.30;59.60;;;;;;6184611;23;20402;-83
2021/05/29 07:23:28;;;;;;;6.17;4.77;;;15.30;59.50;;;;;;6181460;23;20435;-83
2021/05/29 07:25:54;;;;;;;5.40;4.57;;;15.30;59.30;;;;;;6181330;23;20133;-83
2021/05/29 07:28:20;;;;;;;5.70;4.60;;;15.40;59.30;;;;;;6182094;23;20378;-83
2021/05/29 07:30:50;;;;;;;6.87;4.90;;;15.30;59.20;;;;;;6183324;23;20001;-83
2021/05/29 07:33:23;;;;;;;5.13;3.93;;;15.30;59.20;;;;;;6181767;23;20013;-82
2021/05/29 07:35:49;;;;;;;5.93;3.67;;;15.30;59.30;;;;;;6182225;23;20060;-83
2021/05/29 07:38:15;;;;;;;5.43;4.33;;;15.30;59.20;;;;;;6184396;23;20005;-83
2021/05/29 07:40:41;;;;;;;8.53;4.37;;;15.30;59.10;;;;;;6184124;23;20308;-83
2021/05/29 07:43:17;;;;;;;7.70;5.50;;;15.30;59.10;;;;;;6183847;23;20502;-83
2021/05/29 07:45:43;;;;;;;8.80;6.07;;;15.20;59.10;;;;;;6184103;23;20017;-82
2021/05/29 07:48:11;;;;;;;6.67;5.23;;;15.20;59.10;;;;;;6186703;23;20013;-83
2021/05/29 07:50:57;;;;;;;7.03;4.83;;;15.20;59.20;;;;;;6186007;23;20035;-83
2021/05/29 07:53:26;;;;;;;6.40;4.87;;;15.20;59.30;;;;;;6186922;23;20008;-81
2021/05/29 07:55:57;;;;;;;7.67;5.50;;;15.20;59.30;;;;;;6187344;23;20008;-83
2021/05/29 07:58:23;;;;;;;5.33;4.60;;;15.20;59.10;;;;;;6188719;23;20466;-83
2021/05/29 08:00:51;;;;;;;5.37;3.97;;;15.20;59.10;;;;;;6185483;23;20062;-83
2021/05/29 08:03:19;;;;;;;4.77;4.10;;;15.30;59.10;;;;;;6184289;23;20055;-83
2021/05/29 08:05:44;;;;;;;6.37;4.30;;;15.30;58.90;;;;;;6185938;23;20052;-82
2021/05/29 08:08:10;;;;;;;5.43;4.10;;;15.40;58.90;;;;;;6184554;23;20009;-83
2021/05/29 08:10:36;;;;;;;6.67;4.03;;;15.40;58.90;;;;;;6184077;23;20087;-84
2021/05/29 08:13:03;;;;;;;6.00;4.47;;;15.40;59.00;;;;;;6184359;23;20009;-83
2021/05/29 08:15:28;;;;;;;9.77;7.33;;;15.40;58.70;;;;;;6183855;23;20060;-82
2021/05/29 08:17:54;;;;;;;26.50;16.37;;;15.40;58.60;;;;;;6184209;23;20083;-83
2021/05/29 08:20:20;;;;;;;13.30;9.53;;;15.40;58.50;;;;;;6185389;23;20432;-83
2021/05/29 08:22:46;;;;;;;7.83;6.00;;;15.40;58.50;;;;;;6184113;23;20013;-83
2021/05/29 08:25:12;;;;;;;5.37;4.30;;;15.40;58.50;;;;;;6183786;23;20431;-82
2021/05/29 08:27:38;;;;;;;7.57;3.90;;;15.40;58.50;;;;;;6184222;23;20394;-83
2021/05/29 08:30:05;;;;;;;8.67;4.70;;;15.40;58.60;;;;;;6184262;23;20028;-83
2021/05/29 08:32:31;;;;;;;9.73;5.37;;;15.40;58.70;;;;;;6183785;23;20005;-82
2021/05/29 08:34:56;;;;;;;11.80;5.40;;;15.50;58.80;;;;;;6184019;23;20001;-83
2021/05/29 08:37:23;;;;;;;6.00;3.90;;;15.50;58.80;;;;;;6184021;23;20044;-84
2021/05/29 08:39:49;;;;;;;9.03;4.03;;;15.50;58.50;;;;;;6185098;23;20453;-83
2021/05/29 08:42:15;;;;;;;9.23;4.57;;;15.50;58.30;;;;;;6185810;23;20001;-81
2021/05/29 08:44:41;;;;;;;11.07;4.40;;;15.50;58.60;;;;;;6183405;23;20321;-83
2021/05/29 08:47:07;;;;;;;6.83;4.20;;;15.50;58.80;;;;;;6184450;23;20020;-83
2021/05/29 08:49:32;;;;;;;7.13;4.80;;;15.50;59.10;;;;;;6183863;23;20005;-84
2021/05/29 08:52:01;;;;;;;4.77;3.80;;;15.50;59.20;;;;;;6182477;23;20030;-83
2021/05/29 08:54:30;;;;;;;9.67;4.07;;;15.50;59.30;;;;;;6184013;23;20095;-83
2021/05/29 08:56:56;;;;;;;4.47;3.63;;;15.40;59.30;;;;;;6183871;23;20009;-82
2021/05/29 08:59:22;;;;;;;8.90;3.90;;;15.40;59.30;;;;;;6182788;23;20499;-83
2021/05/29 09:01:48;;;;;;;9.87;4.20;;;15.40;59.40;;;;;;6184332;23;20099;-83
2021/05/29 09:04:13;;;;;;;4.90;3.60;;;15.40;59.30;;;;;;6183706;23;20444;-83
2021/05/29 09:06:44;;;;;;;4.70;3.63;;;15.40;59.30;;;;;;6183118;23;20530;-83
2021/05/29 09:09:12;;;;;;;7.63;3.83;;;15.40;59.30;;;;;;6179461;23;20001;-83
2021/05/29 09:11:49;;;;;;;6.00;3.70;;;15.30;59.30;;;;;;6182521;23;20005;-83
2021/05/29 09:14:30;;;;;;;3.70;2.77;;;15.40;58.90;;;;;;6183958;23;20379;-83
2021/05/29 09:17:19;;;;;;;4.40;3.20;;;15.40;58.50;;;;;;6185426;23;20432;-83
2021/05/29 09:20:02;;;;;;;6.40;3.90;;;15.50;58.10;;;;;;6182807;23;20004;-83
2021/05/29 09:22:52;;;;;;;5.17;3.23;;;15.50;58.00;;;;;;6179394;23;20037;-83
2021/05/29 09:25:22;;;;;;;5.43;3.40;;;15.50;57.70;;;;;;6183438;23;20009;-83
2021/05/29 09:27:56;;;;;;;5.43;3.30;;;15.50;57.70;;;;;;6184919;23;20008;-83
2021/05/29 09:30:47;;;;;;;5.17;3.53;;;15.60;57.70;;;;;;6182308;23;20068;-83
2021/05/29 09:33:22;;;;;;;6.73;3.40;;;15.60;57.60;;;;;;6184378;23;19997;-83
2021/05/29 09:35:57;;;;;;;5.27;2.90;;;15.70;57.50;;;;;;6181648;23;20009;-83
2021/05/29 09:38:24;;;;;;;5.30;3.87;;;15.70;57.40;;;;;;6182003;23;20016;-83
2021/05/29 09:40:53;;;;;;;4.27;3.07;;;15.80;57.30;;;;;;6185414;23;20001;-83
2021/05/29 09:43:19;;;;;;;4.43;3.30;;;15.80;57.10;;;;;;6183050;23;20004;-83
2021/05/29 09:45:45;;;;;;;5.93;3.07;;;15.80;57.00;;;;;;6183280;23;20079;-82
2021/05/29 09:48:20;;;;;;;3.73;2.67;;;15.90;56.60;;;;;;6183289;23;20447;-83
2021/05/29 09:51:09;;;;;;;5.85;2.80;;;15.90;56.20;;;;;;6182973;23;19997;-83
2021/05/29 09:53:38;;;;;;;5.10;3.05;;;16.00;56.00;;;;;;6179530;23;20055;-83
2021/05/29 09:56:05;;;;;;;3.80;2.77;;;16.00;56.00;;;;;;6181805;23;20008;-83
2021/05/29 09:58:53;;;;;;;4.30;2.90;;;16.10;55.80;;;;;;6183553;23;20008;-83
2021/05/29 10:01:36;;;;;;;4.55;2.50;;;16.20;55.50;;;;;;6183041;23;20024;-83
2021/05/29 10:04:03;;;;;;;3.97;2.60;;;16.30;55.20;;;;;;6181860;23;20005;-83
2021/05/29 10:06:29;;;;;;;3.95;3.05;;;16.40;55.30;;;;;;6181906;23;20072;-83
2021/05/29 10:08:55;;;;;;;2.92;2.60;;;16.50;55.10;;;;;;6181806;23;20009;-83
2021/05/29 10:11:21;;;;;;;4.85;2.90;;;16.50;55.00;;;;;;6187192;23;20008;-82
2021/05/29 10:13:46;;;;;;;3.13;2.65;;;16.60;54.80;;;;;;6187003;23;19997;-83
2021/05/29 10:16:14;;;;;;;4.65;3.25;;;16.60;54.60;;;;;;6185139;23;20057;-82
2021/05/29 10:18:47;;;;;;;4.68;2.83;;;16.60;54.50;;;;;;6183021;23;20032;-83
2021/05/29 10:21:14;;;;;;;3.30;2.85;;;16.70;54.30;;;;;;6182871;23;20012;-82
2021/05/29 10:23:44;;;;;;;4.18;3.33;;;16.70;54.00;;;;;;6182975;23;20498;-83
2021/05/29 10:26:10;;;;;;;6.30;3.20;;;16.70;54.00;;;;;;6184562;23;20033;-83
2021/05/29 10:28:36;;;;;;;6.90;3.10;;;16.70;53.90;;;;;;6183158;23;20005;-83
2021/05/29 10:31:02;;;;;;;5.03;3.83;;;16.80;53.80;;;;;;6181529;23;20005;-83
2021/05/29 10:33:39;;;;;;;3.20;2.88;;;16.80;53.30;;;;;;6180271;23;20012;-83
2021/05/29 10:36:06;;;;;;;3.60;2.40;;;16.90;53.20;;;;;;6181736;23;20114;-83
2021/05/29 10:38:43;;;;;;;4.13;2.83;;;17.00;53.10;;;;;;6182290;23;20006;-83
2021/05/29 10:41:08;;;;;;;5.07;3.28;;;17.20;53.00;;;;;;6184085;23;19998;-83
2021/05/29 10:43:36;;;;;;;5.05;3.00;;;17.40;52.80;;;;;;6184424;23;20028;-83
2021/05/29 10:46:12;;;;;;;5.85;3.33;;;17.40;52.30;;;;;;6181121;23;20017;-83
2021/05/29 10:48:51;;;;;;;4.88;3.78;;;17.50;52.10;;;;;;6181852;23;20012;-83
2021/05/29 10:51:18;;;;;;;5.07;3.40;;;17.50;51.80;;;;;;6176836;23;20016;-85
2021/05/29 10:53:55;;;;;;;7.68;3.38;;;17.60;51.80;;;;;;6177079;23;20021;-83
2021/05/29 10:56:21;;;;;;;6.25;3.20;;;17.60;51.60;;;;;;6177846;23;20044;-83
2021/05/29 10:59:11;;;;;;;5.75;3.65;;;17.60;51.60;;;;;;6182261;23;20410;-82
2021/05/29 11:04:18;;;;;;;4.38;3.40;;;17.60;51.00;;;;;;6185575;23;20016;-83
2021/05/29 11:06:48;;;;;;;4.78;3.67;;;17.60;51.30;;;;;;6181916;23;20005;-83
2021/05/29 11:09:15;;;;;;;4.18;3.53;;;17.60;51.30;;;;;;6182384;23;20059;-82
2021/05/29 11:14:12;;;;;;;6.63;3.58;;;17.70;51.40;;;;;;6184094;23;20017;-83
2021/05/29 11:16:47;;;;;;;6.30;4.72;;;17.80;51.30;;;;;;6182992;23;20005;-83
2021/05/29 11:19:14;;;;;;;10.43;4.05;;;17.90;51.00;;;;;;6182807;23;20016;-83
2021/05/29 11:22:08;;;;;;;10.50;5.32;;;18.00;51.30;;;;;;6182177;23;20008;-84
2021/05/29 11:24:35;;;;;;;12.95;5.03;;;18.20;50.50;;;;;;6174016;23;20087;-83
2021/05/29 11:27:04;;;;;;;8.02;5.15;;;18.20;50.40;;;;;;6180410;23;20021;-82
2021/05/29 11:29:45;;;;;;;11.02;6.75;;;18.40;50.40;;;;;;6181348;23;20005;-83
2021/05/29 11:32:10;;;;;;;13.05;6.88;;;18.50;50.20;;;;;;6181790;23;20487;-83
2021/05/29 11:34:41;;;;;;;10.23;5.18;;;18.80;49.50;;;;;;6179283;23;20032;-82
2021/05/29 11:37:14;;;;;;;11.57;4.97;;;19.10;49.30;;;;;;6179162;23;20104;-83
2021/05/29 11:39:53;;;;;;;5.95;4.13;;;19.20;49.20;;;;;;6179853;23;20037;-83
2021/05/29 11:42:19;;;;;;;10.45;5.63;;;19.20;48.80;;;;;;6182850;23;20364;-82
2021/05/29 11:44:45;;;;;;;15.75;6.68;;;18.90;48.80;;;;;;6180850;23;20451;-82
2021/05/29 11:47:17;;;;;;;16.98;8.82;;;18.80;49.10;;;;;;6181861;23;20241;-83
2021/05/29 11:49:44;;;;;;;10.65;5.15;;;18.80;49.00;;;;;;6181922;23;20092;-83
2021/05/29 11:52:10;;;;;;;7.80;4.88;;;18.70;48.90;;;;;;6184791;23;19997;-82
2021/05/29 11:54:37;;;;;;;9.15;4.43;;;18.70;48.50;;;;;;6186211;23;20443;-84
2021/05/29 11:57:05;;;;;;;5.28;3.00;;;18.70;48.40;;;;;;6187116;23;20074;-82
2021/05/29 11:59:32;;;;;;;5.10;2.58;;;18.80;48.00;;;;;;6187741;23;20015;-82
2021/05/29 12:01:58;;;;;;;5.40;2.53;;;18.70;47.90;;;;;;6188196;23;20061;-81
2021/05/29 12:04:25;;;;;;;8.45;2.67;;;18.70;47.60;;;;;;6186004;23;19997;-82
2021/05/29 12:06:56;;;;;;;4.50;3.17;;;18.80;47.60;;;;;;6184227;23;20005;-82
2021/05/29 12:09:29;;;;;;;3.63;2.55;;;18.80;47.50;;;;;;6184529;23;20339;-82
2021/05/29 12:11:59;;;;;;;3.47;2.33;;;18.80;47.50;;;;;;6186251;23;20335;-83
2021/05/29 12:14:33;;;;;;;4.43;2.35;;;18.80;47.50;;;;;;6184106;23;20005;-82
2021/05/29 12:17:14;;;;;;;7.82;2.60;;;18.80;47.30;;;;;;6184375;23;20012;-82
2021/05/29 12:19:42;;;;;;;5.80;2.35;;;18.90;47.50;;;;;;6184127;23;20063;-82
2021/05/29 12:22:17;;;;;;;6.90;2.53;;;18.90;47.40;;;;;;6184217;23;20447;-82
2021/05/29 12:24:47;;;;;;;5.57;2.50;;;18.90;47.10;;;;;;6183967;23;20009;-83
2021/05/29 12:27:17;;;;;;;4.82;2.45;;;19.10;46.80;;;;;;6176839;23;20012;-84
2021/05/29 12:29:44;;;;;;;5.35;2.38;;;19.40;46.70;;;;;;6175907;23;20506;-83
2021/05/29 12:32:27;;;;;;;4.47;2.55;;;19.60;46.40;;;;;;6180685;23;20032;-82
2021/05/29 12:34:52;;;;;;;;;;;19.80;46.00;;;;;;6184925;23;20488;-82
2021/05/29 12:37:26;;;;;;;3.30;2.13;;;19.90;46.10;;;;;;6182353;23;19931;-82
2021/05/29 12:39:57;;;;;;;3.03;2.00;;;20.10;46.20;;;;;;6183825;23;20005;-83
2021/05/29 12:42:26;;;;;;;2.88;1.90;;;20.20;45.80;;;;;;6185284;23;20009;-82
2021/05/29 12:44:55;;;;;;;3.60;2.30;;;20.30;45.40;;;;;;6183621;23;20351;-83
2021/05/29 12:47:27;;;;;;;1.92;1.40;;;20.40;45.20;;;;;;6183548;23;20009;-83
2021/05/29 12:49:53;;;;;;;6.00;1.63;;;20.50;45.10;;;;;;6182918;23;20001;-82
2021/05/29 12:52:32;;;;;;;1.98;1.27;;;20.40;45.20;;;;;;6183286;23;20005;-82
2021/05/29 12:54:58;;;;;;;3.20;1.95;;;20.50;45.20;;;;;;6181762;23;20092;-83
2021/05/29 12:57:40;;;;;;;2.13;1.20;;;20.50;44.40;;;;;;6183032;23;20013;-83
2021/05/29 13:00:14;;;;;;;1.58;1.00;;;20.40;44.30;;;;;;6185334;23;20032;-83
2021/05/29 13:11:30;;;;;;;2.72;1.40;;;20.50;42.30;;;;;;6194627;23;20309;-83
2021/05/29 13:13:58;;;;;;;2.10;1.40;;;20.70;42.50;;;;;;6183652;23;20013;-83
2021/05/29 13:16:24;;;;;;;1.80;1.10;;;20.80;42.30;;;;;;6183437;23;20016;-84
2021/05/29 13:19:05;;;;;;;4.63;1.38;;;20.80;42.30;;;;;;6183314;23;20443;-81